createdAt,value
2022-10-24T00:01:10.372Z,14.40
2022-10-24T00:06:14.628Z,14.10
2022-10-24T00:11:20.922Z,11.45
2022-10-24T00:16:23.798Z,13.68
2022-10-24T00:21:26.582Z,12.85
2022-10-24T00:26:31.047Z,12.60
2022-10-24T00:31:33.931Z,12.68
2022-10-24T00:36:36.976Z,11.70
2022-10-24T00:41:43.722Z,11.70
2022-10-24T00:46:50.273Z,11.55
2022-10-24T00:51:57.850Z,10.93
2022-10-24T00:57:07.171Z,10.45
2022-10-24T01:02:10.357Z,10.30
2022-10-24T01:07:24.354Z,10.05
2022-10-24T01:12:38.376Z,9.70
2022-10-24T01:17:47.266Z,9.30
2022-10-24T01:23:05.103Z,9.23
2022-10-24T01:28:14.994Z,9.65
2022-10-24T01:33:28.106Z,9.13
2022-10-24T01:38:36.033Z,10.30
2022-10-24T01:43:44.228Z,10.45
2022-10-24T01:48:53.954Z,10.15
2022-10-24T01:53:57.651Z,10.07
2022-10-24T01:59:07.851Z,10.23
2022-10-24T02:04:13.638Z,10.40
2022-10-24T02:09:19.148Z,10.18
2022-10-24T02:14:26.651Z,10.73
2022-10-24T02:19:33.095Z,10.27
2022-10-24T02:24:40.501Z,9.85
2022-10-24T02:29:48.186Z,10.32
2022-10-24T02:34:52.886Z,9.57
2022-10-24T02:39:57.064Z,10.45
2022-10-24T02:45:00.231Z,10.90
2022-10-24T02:50:04.638Z,11.52
2022-10-24T02:55:07.933Z,11.48
2022-10-24T03:00:11.966Z,11.98
2022-10-24T03:05:16.100Z,13.18
2022-10-24T03:10:19.254Z,13.00
2022-10-24T03:15:22.143Z,11.18
2022-10-24T03:20:26.384Z,12.40
2022-10-24T03:25:29.155Z,12.65
2022-10-24T03:30:31.936Z,12.85
2022-10-24T03:35:37.074Z,12.93
2022-10-24T03:40:42.302Z,12.38
2022-10-24T03:45:45.447Z,12.55
2022-10-24T03:50:49.554Z,12.77
2022-10-24T03:55:52.353Z,12.85
2022-10-24T04:00:58.339Z,13.02
2022-10-24T04:06:02.480Z,12.23
2022-10-24T04:11:05.530Z,11.43
2022-10-24T04:16:08.943Z,11.85
2022-10-24T04:21:15.869Z,12.45
2022-10-24T04:26:20.689Z,10.77
2022-10-24T04:31:23.832Z,11.07
2022-10-24T04:36:28.010Z,11.55
2022-10-24T04:41:30.758Z,11.25
2022-10-24T04:46:33.759Z,10.60
2022-10-24T04:51:37.870Z,11.00
2022-10-24T04:56:40.629Z,10.43
2022-10-24T05:01:43.452Z,9.43
2022-10-24T05:06:47.703Z,10.20
2022-10-24T05:11:50.433Z,9.90
2022-10-24T05:16:53.576Z,9.20
2022-10-24T05:21:57.728Z,9.75
2022-10-24T05:27:00.488Z,8.40
2022-10-24T05:32:03.235Z,8.65
2022-10-24T05:37:07.380Z,9.40
2022-10-24T05:42:11.089Z,8.73
2022-10-24T05:47:14.076Z,7.90
2022-10-24T05:52:18.189Z,8.88
2022-10-24T05:57:20.942Z,8.30
2022-10-24T06:02:23.847Z,8.20
2022-10-24T06:07:28.136Z,8.98
2022-10-24T06:12:30.930Z,8.55
2022-10-24T06:17:34.083Z,8.35
2022-10-24T06:22:38.235Z,7.88
2022-10-24T06:27:41.353Z,6.47
2022-10-24T06:32:44.784Z,6.97
2022-10-24T06:37:49.401Z,6.50
2022-10-24T06:42:52.462Z,6.20
2022-10-24T06:47:55.546Z,6.85
2022-10-24T06:52:59.993Z,6.03
2022-10-24T06:58:02.763Z,6.35
2022-10-24T07:03:05.621Z,5.65
2022-10-24T07:08:10.934Z,5.60
2022-10-24T07:13:13.691Z,5.53
2022-10-24T07:18:16.626Z,5.65
2022-10-24T07:23:21.002Z,5.15
2022-10-24T07:28:23.782Z,5.18
2022-10-24T07:33:28.607Z,5.53
2022-10-24T07:38:32.724Z,4.82
2022-10-24T07:43:35.540Z,5.00
2022-10-24T07:48:39.843Z,5.07
2022-10-24T07:53:44.531Z,4.95
2022-10-24T07:58:48.623Z,5.13
2022-10-24T08:03:51.764Z,4.75
2022-10-24T08:08:55.923Z,4.57
2022-10-24T08:13:58.756Z,4.72
2022-10-24T08:19:01.534Z,5.00
2022-10-24T08:24:06.058Z,4.88
2022-10-24T08:29:11.443Z,5.22
2022-10-24T08:34:14.540Z,4.97
2022-10-24T08:39:19.688Z,4.80
2022-10-24T08:44:27.828Z,5.30
2022-10-24T08:49:38.442Z,4.85
2022-10-24T08:54:45.468Z,5.10
2022-10-24T08:59:48.945Z,4.88
2022-10-24T09:04:56.499Z,4.93
2022-10-24T09:10:07.714Z,4.30
2022-10-24T09:15:17.035Z,4.85
2022-10-24T09:20:25.465Z,4.10
2022-10-24T09:25:33.254Z,4.72
2022-10-24T09:30:37.503Z,4.20
2022-10-24T09:35:41.057Z,4.80
2022-10-24T09:40:51.319Z,4.38
2022-10-24T09:46:03.575Z,4.25
2022-10-24T09:51:08.188Z,4.03
2022-10-24T09:56:14.383Z,4.38
2022-10-24T10:01:21.148Z,3.88
2022-10-24T10:06:24.044Z,3.60
2022-10-24T10:11:30.792Z,4.40
2022-10-24T10:16:37.538Z,3.70
2022-10-24T10:21:55.151Z,4.00
2022-10-24T10:26:59.266Z,3.80
2022-10-24T10:32:13.504Z,4.00
2022-10-24T10:37:26.594Z,3.75
2022-10-24T10:42:37.285Z,4.03
2022-10-24T10:47:52.494Z,3.85
2022-10-24T10:53:01.538Z,4.93
2022-10-24T10:58:21.379Z,4.18
2022-10-24T11:03:37.887Z,3.38
2022-10-24T11:09:07.417Z,3.00
2022-10-24T11:14:22.878Z,3.17
2022-10-24T11:19:33.214Z,3.22
2022-10-24T11:24:44.132Z,3.22
2022-10-24T11:29:55.017Z,1.98
2022-10-24T11:35:02.351Z,2.95
2022-10-24T11:40:12.161Z,2.35
2022-10-24T11:45:18.827Z,2.53
2022-10-24T11:50:28.455Z,2.95
2022-10-24T11:55:38.815Z,2.30
2022-10-24T12:01:01.959Z,1.77
2022-10-24T12:06:23.606Z,1.50
2022-10-24T12:11:53.162Z,1.98
2022-10-24T12:17:16.924Z,1.75
2022-10-24T12:22:23.768Z,1.70
2022-10-24T12:27:35.510Z,1.58
2022-10-24T12:32:42.385Z,1.55
2022-10-24T12:37:46.937Z,1.70
2022-10-24T12:43:14.789Z,1.58
2022-10-24T12:48:32.895Z,2.03
2022-10-24T12:53:38.931Z,3.20
2022-10-24T12:58:44.090Z,2.45
2022-10-24T13:04:02.763Z,1.80
2022-10-24T13:09:26.636Z,1.85
2022-10-24T13:14:50.002Z,1.30
2022-10-24T13:20:07.415Z,0.98
2022-10-24T13:25:33.676Z,0.90
2022-10-24T13:30:36.520Z,1.85
2022-10-24T13:35:41.143Z,2.67
2022-10-24T13:40:45.703Z,1.95
2022-10-24T13:45:58.439Z,0.40
2022-10-24T13:51:07.583Z,0.80
2022-10-24T13:56:13.464Z,0.98
2022-10-24T14:01:20.486Z,0.77
2022-10-24T14:06:27.750Z,1.10
2022-10-24T14:11:32.105Z,1.00
2022-10-24T14:16:35.801Z,1.88
2022-10-24T14:21:43.578Z,2.47
2022-10-24T14:26:47.958Z,2.22
2022-10-24T14:31:57.381Z,2.10
2022-10-24T14:37:03.940Z,1.92
2022-10-24T14:42:13.357Z,1.58
2022-10-24T14:47:23.620Z,1.85
2022-10-24T14:52:32.150Z,1.65
2022-10-24T14:57:37.738Z,2.13
2022-10-24T15:02:43.284Z,1.60
2022-10-24T15:08:09.302Z,1.20
2022-10-24T15:13:14.401Z,1.05
2022-10-24T15:18:20.811Z,1.20
2022-10-24T15:23:28.874Z,1.60
2022-10-24T15:28:47.093Z,1.00
2022-10-24T15:33:49.978Z,1.35
2022-10-24T15:38:59.215Z,1.45
2022-10-24T15:44:02.681Z,1.48
2022-10-24T15:49:05.447Z,1.55
2022-10-24T15:54:12.333Z,1.67
2022-10-24T15:59:15.201Z,1.33
2022-10-24T16:04:18.807Z,1.90
2022-10-24T16:09:25.052Z,3.25
2022-10-24T16:14:28.441Z,2.70
2022-10-24T16:19:31.193Z,1.40
2022-10-24T16:24:35.330Z,1.42
2022-10-24T16:29:38.067Z,1.15
2022-10-24T16:34:40.818Z,1.50
2022-10-24T16:39:44.900Z,1.50
2022-10-24T16:44:47.624Z,1.20
2022-10-24T16:49:50.465Z,1.48
2022-10-24T16:54:55.061Z,1.40
2022-10-24T16:59:58.057Z,1.30
2022-10-24T17:05:00.994Z,1.75
2022-10-24T17:10:05.666Z,1.40
2022-10-24T17:15:09.455Z,1.90
2022-10-24T17:20:13.631Z,1.90
2022-10-24T17:25:21.312Z,1.38
2022-10-24T17:30:26.196Z,2.30
2022-10-24T17:35:30.611Z,3.38
2022-10-24T17:40:42.306Z,3.30
2022-10-24T17:45:45.676Z,3.88
2022-10-24T17:50:48.639Z,4.30
2022-10-24T17:55:52.841Z,3.63
2022-10-24T18:00:55.613Z,2.92
2022-10-24T18:05:59.459Z,3.08
2022-10-24T18:11:13.178Z,2.90
2022-10-24T18:16:18.186Z,3.28
2022-10-24T18:21:24.273Z,2.90
2022-10-24T18:26:29.472Z,3.20
2022-10-24T18:31:33.992Z,3.30
2022-10-24T18:36:37.573Z,2.83
2022-10-24T18:41:50.039Z,2.60
2022-10-24T18:46:56.350Z,2.80
2022-10-24T18:52:14.807Z,2.90
2022-10-24T18:57:23.370Z,2.92
2022-10-24T19:02:32.541Z,2.97
2022-10-24T19:07:35.668Z,3.00
2022-10-24T19:12:44.929Z,2.65
2022-10-24T19:17:49.475Z,2.60
2022-10-24T19:22:52.801Z,3.05
2022-10-24T19:27:56.912Z,3.20
2022-10-24T19:32:59.675Z,2.58
2022-10-24T19:38:02.416Z,2.92
2022-10-24T19:43:06.488Z,2.50
2022-10-24T19:48:09.303Z,3.15
2022-10-24T19:53:14.189Z,2.97
2022-10-24T19:58:20.009Z,3.28
2022-10-24T20:03:22.794Z,3.17
2022-10-24T20:08:25.701Z,3.17
2022-10-24T20:13:30.210Z,3.17
2022-10-24T20:18:34.486Z,3.25
2022-10-24T20:23:38.037Z,3.65
2022-10-24T20:28:44.086Z,3.88
2022-10-24T20:33:46.855Z,3.38
2022-10-24T20:38:49.672Z,3.70
2022-10-24T20:43:55.580Z,3.58
2022-10-24T20:48:58.455Z,4.18
2022-10-24T20:54:01.889Z,4.68
2022-10-24T20:59:06.183Z,4.97
2022-10-24T21:04:09.177Z,3.63
2022-10-24T21:09:11.952Z,3.90
2022-10-24T21:14:17.942Z,3.67
2022-10-24T21:19:20.707Z,3.70
2022-10-24T21:24:23.476Z,3.72
2022-10-24T21:29:33.082Z,3.38
2022-10-24T21:34:36.618Z,4.03
2022-10-24T21:39:39.363Z,3.63
2022-10-24T21:44:43.507Z,3.90
2022-10-24T21:49:46.271Z,3.80
2022-10-24T21:54:49.057Z,3.65
2022-10-24T21:59:53.167Z,4.65
2022-10-24T22:04:55.919Z,3.67
2022-10-24T22:11:00.825Z,4.00
2022-10-24T22:16:51.235Z,4.43
2022-10-24T22:22:31.774Z,3.38
2022-10-24T22:59:19.560Z,3.38
2022-10-24T23:06:03.694Z,3.10
2022-10-24T23:12:12.743Z,3.20
2022-10-24T23:25:27.654Z,2.58
2022-10-24T23:57:32.104Z,3.00
